createdAt,value
2023-05-10T00:02:15.198Z,96443.56
2023-05-10T00:04:42.741Z,96429.91
2023-05-10T00:07:11.155Z,96436.91
2023-05-10T00:09:38.798Z,96440.81
2023-05-10T00:12:06.834Z,96433.53
2023-05-10T00:14:34.407Z,96432.91
2023-05-10T00:17:03.407Z,96440.53
2023-05-10T00:19:30.968Z,96438.09
2023-05-10T00:21:58.483Z,96437.97
2023-05-10T00:24:26.055Z,96437.34
2023-05-10T00:26:53.581Z,96441.63
2023-05-10T00:29:21.273Z,96443.31
2023-05-10T00:31:48.848Z,96443.09
2023-05-10T00:34:17.761Z,96446.09
2023-05-10T00:36:45.334Z,96445.78
2023-05-10T00:39:13.236Z,96445.97
2023-05-10T00:41:40.713Z,96444.66
2023-05-10T00:44:08.309Z,96452.41
2023-05-10T00:46:37.018Z,96455.09
2023-05-10T00:49:05.286Z,96458.66
2023-05-10T00:51:34.472Z,96456.66
2023-05-10T00:54:02.200Z,96464.09
2023-05-10T00:56:30.761Z,96455.13
2023-05-10T00:58:58.579Z,96458.69
2023-05-10T01:01:26.669Z,96466.63
2023-05-10T01:03:54.564Z,96461.97
2023-05-10T01:06:22.200Z,96464.31
2023-05-10T01:08:51.741Z,96459.00
2023-05-10T01:11:19.351Z,96456.66
2023-05-10T01:13:52.756Z,96461.53
2023-05-10T01:16:20.369Z,96459.19
2023-05-10T01:18:48.424Z,96456.53
2023-05-10T01:21:24.143Z,96456.88
2023-05-10T01:24:21.246Z,96466.31
2023-05-10T01:27:17.788Z,96465.75
2023-05-10T01:30:15.985Z,96464.72
2023-05-10T01:32:53.262Z,96458.41
2023-05-10T01:35:28.593Z,96462.44
2023-05-10T01:38:05.910Z,96467.75
2023-05-10T01:40:39.413Z,96471.00
2023-05-10T01:43:13.372Z,96468.63
2023-05-10T01:45:49.071Z,96471.44
2023-05-10T01:48:20.344Z,96467.72
2023-05-10T01:50:49.941Z,96475.63
2023-05-10T01:53:21.769Z,96473.44
2023-05-10T01:55:50.490Z,96471.91
2023-05-10T01:58:22.995Z,96475.56
2023-05-10T02:00:53.407Z,96476.28
2023-05-10T02:03:25.369Z,96481.28
2023-05-10T02:05:53.919Z,96480.63
2023-05-10T02:08:23.069Z,96475.97
2023-05-10T02:10:52.539Z,96477.09
2023-05-10T02:13:21.178Z,96478.72
2023-05-10T02:15:50.593Z,96476.47
2023-05-10T02:18:19.859Z,96471.50
2023-05-10T02:20:49.566Z,96476.41
2023-05-10T02:23:19.425Z,96482.84
2023-05-10T02:25:49.346Z,96478.09
2023-05-10T02:28:19.014Z,96468.06
2023-05-10T02:30:47.026Z,96470.41
2023-05-10T02:33:16.242Z,96476.66
2023-05-10T02:35:44.497Z,96476.78
2023-05-10T02:38:13.801Z,96477.28
2023-05-10T02:40:43.329Z,96479.19
2023-05-10T02:43:15.212Z,96475.97
2023-05-10T02:45:45.021Z,96479.28
2023-05-10T02:48:12.603Z,96477.06
2023-05-10T02:50:43.633Z,96479.72
2023-05-10T02:53:17.313Z,96475.50
2023-05-10T02:55:48.450Z,96473.31
2023-05-10T02:58:15.955Z,96480.72
2023-05-10T03:00:43.480Z,96477.81
2023-05-10T03:03:11.016Z,96477.09
2023-05-10T03:05:38.514Z,96474.34
2023-05-10T03:08:07.027Z,96471.50
2023-05-10T03:10:43.336Z,96475.38
2023-05-10T03:13:21.052Z,96474.72
2023-05-10T03:15:53.545Z,96480.56
2023-05-10T03:18:25.216Z,96479.28
2023-05-10T03:20:58.490Z,96476.81
2023-05-10T03:23:32.058Z,96477.72
2023-05-10T03:26:02.192Z,96484.69
2023-05-10T03:28:29.866Z,96483.25
2023-05-10T03:30:58.593Z,96478.69
2023-05-10T03:33:26.169Z,96491.44
2023-05-10T03:35:53.706Z,96492.91
2023-05-10T03:38:21.199Z,96495.25
2023-05-10T03:40:48.705Z,96489.34
2023-05-10T03:43:17.600Z,96498.56
2023-05-10T03:45:45.108Z,96488.13
2023-05-10T03:48:14.524Z,96499.22
2023-05-10T03:50:42.049Z,96493.56
2023-05-10T03:53:09.524Z,96503.44
2023-05-10T03:55:37.468Z,96507.19
2023-05-10T03:58:05.078Z,96501.44
2023-05-10T04:00:34.067Z,96498.13
2023-05-10T04:03:01.623Z,96500.34
2023-05-10T04:05:29.212Z,96510.31
2023-05-10T04:07:56.764Z,96504.00
2023-05-10T04:10:24.284Z,96507.25
2023-05-10T04:12:51.813Z,96507.88
2023-05-10T04:15:19.413Z,96505.13
2023-05-10T04:17:48.322Z,96507.47
2023-05-10T04:20:16.372Z,96502.78
2023-05-10T04:22:44.104Z,96500.69
2023-05-10T04:25:11.720Z,96499.25
2023-05-10T04:27:39.203Z,96507.56
2023-05-10T04:30:08.166Z,96498.69
2023-05-10T04:32:35.672Z,96496.38
2023-05-10T04:35:05.623Z,96497.66
2023-05-10T04:37:33.175Z,96503.56
2023-05-10T04:40:01.625Z,96505.44
2023-05-10T04:42:29.146Z,96508.56
2023-05-10T04:44:56.665Z,96518.00
2023-05-10T04:47:24.184Z,96513.56
2023-05-10T04:49:51.690Z,96523.44
2023-05-10T04:52:20.503Z,96517.66
2023-05-10T04:54:48.132Z,96521.88
2023-05-10T04:57:15.648Z,96520.88
2023-05-10T04:59:43.405Z,96529.53
2023-05-10T05:02:10.969Z,96519.16
2023-05-10T05:04:38.501Z,96529.34
2023-05-10T05:07:06.004Z,96542.28
2023-05-10T05:09:34.844Z,96530.19
2023-05-10T05:12:02.501Z,96526.28
2023-05-10T05:14:29.984Z,96538.97
2023-05-10T05:16:57.808Z,96538.00
2023-05-10T05:19:25.561Z,96545.00
2023-05-10T05:21:53.123Z,96543.44
2023-05-10T05:24:20.701Z,96546.75
2023-05-10T05:26:49.639Z,96553.69
2023-05-10T05:29:17.232Z,96559.69
2023-05-10T05:31:44.905Z,96556.72
2023-05-10T05:34:12.863Z,96559.38
2023-05-10T05:36:40.414Z,96561.50
2023-05-10T05:39:08.292Z,96560.06
2023-05-10T05:41:35.955Z,96568.63
2023-05-10T05:44:04.887Z,96564.84
2023-05-10T05:46:32.469Z,96560.69
2023-05-10T05:49:00.173Z,96556.38
2023-05-10T05:51:27.801Z,96565.13
2023-05-10T05:53:55.461Z,96560.94
2023-05-10T05:56:25.422Z,96565.16
2023-05-10T05:58:53.224Z,96570.56
2023-05-10T06:01:22.444Z,96570.00
2023-05-10T06:03:51.142Z,96569.41
2023-05-10T06:06:20.878Z,96563.75
2023-05-10T06:08:48.525Z,96570.97
2023-05-10T06:11:16.182Z,96580.00
2023-05-10T06:13:43.799Z,96573.84
2023-05-10T06:16:11.473Z,96579.09
2023-05-10T06:18:40.512Z,96577.63
2023-05-10T06:21:08.116Z,96595.50
2023-05-10T06:23:36.690Z,96599.13
2023-05-10T06:26:04.767Z,96593.28
2023-05-10T06:28:33.198Z,96597.47
2023-05-10T06:31:00.853Z,96603.72
2023-05-10T06:33:28.501Z,96600.75
2023-05-10T06:35:58.073Z,96608.25
2023-05-10T06:38:25.676Z,96617.56
2023-05-10T06:40:53.246Z,96606.09
2023-05-10T06:43:20.844Z,96614.91
2023-05-10T06:45:49.741Z,96613.44
2023-05-10T06:48:17.391Z,96620.59
2023-05-10T06:50:44.998Z,96617.78
2023-05-10T06:53:14.147Z,96618.28
2023-05-10T06:55:41.779Z,96618.66
2023-05-10T06:58:09.277Z,96622.06
2023-05-10T07:00:40.110Z,96615.28
2023-05-10T07:03:08.096Z,96611.13
2023-05-10T07:05:36.106Z,96619.41
2023-05-10T07:08:03.891Z,96618.84
2023-05-10T07:10:32.832Z,96622.28
2023-05-10T07:13:01.336Z,96627.63
2023-05-10T07:15:29.413Z,96627.34
2023-05-10T07:17:57.096Z,96630.59
2023-05-10T07:20:24.669Z,96627.94
2023-05-10T07:22:52.216Z,96634.13
2023-05-10T07:25:20.007Z,96634.13
2023-05-10T07:27:50.128Z,96628.03
2023-05-10T07:30:18.307Z,96637.38
2023-05-10T07:32:45.897Z,96628.03
2023-05-10T07:35:13.421Z,96638.13
2023-05-10T07:37:40.940Z,96640.09
2023-05-10T07:40:09.782Z,96640.69
2023-05-10T07:42:37.258Z,96636.78
2023-05-10T07:45:07.324Z,96639.00
2023-05-10T07:47:34.890Z,96639.91
2023-05-10T07:50:02.652Z,96634.19
2023-05-10T07:52:30.342Z,96645.91
2023-05-10T07:54:58.117Z,96641.44
2023-05-10T07:57:25.636Z,96644.59
2023-05-10T07:59:53.161Z,96651.66
2023-05-10T08:02:22.039Z,96641.25
2023-05-10T08:04:49.540Z,96648.53
2023-05-10T08:07:17.220Z,96646.19
2023-05-10T08:09:44.893Z,96651.34
2023-05-10T08:12:12.428Z,96652.78
2023-05-10T08:14:39.936Z,96655.16
2023-05-10T08:17:07.454Z,96647.63
2023-05-10T08:19:36.323Z,96652.44
2023-05-10T08:22:03.864Z,96652.97
2023-05-10T08:24:31.356Z,96652.84
2023-05-10T08:26:59.218Z,96652.78
2023-05-10T08:29:28.292Z,96647.06
2023-05-10T08:31:56.145Z,96649.75
2023-05-10T08:34:24.635Z,96653.06
2023-05-10T08:36:53.882Z,96653.03
2023-05-10T08:39:29.844Z,96657.59
2023-05-10T08:42:03.344Z,96650.00
2023-05-10T08:44:32.607Z,96656.19
2023-05-10T08:47:02.710Z,96653.34
2023-05-10T08:49:33.383Z,96658.38
2023-05-10T08:52:06.220Z,96659.16
2023-05-10T08:54:34.621Z,96663.34
2023-05-10T08:57:02.197Z,96662.84
2023-05-10T08:59:30.349Z,96668.84
2023-05-10T09:01:59.939Z,96675.72
2023-05-10T09:04:27.617Z,96671.94
2023-05-10T09:06:56.013Z,96679.53
2023-05-10T09:09:27.183Z,96679.09
2023-05-10T09:11:55.737Z,96679.09
2023-05-10T09:14:26.567Z,96674.38
2023-05-10T09:16:55.113Z,96673.06
2023-05-10T09:19:22.706Z,96675.06
2023-05-10T09:21:50.862Z,96677.38
2023-05-10T09:24:18.475Z,96677.22
2023-05-10T09:26:50.333Z,96672.50
2023-05-10T09:29:18.196Z,96668.16
2023-05-10T09:31:48.236Z,96674.38
2023-05-10T09:34:20.397Z,96669.50
2023-05-10T09:36:55.582Z,96676.72
2023-05-10T09:39:31.493Z,96669.06
2023-05-10T09:42:01.792Z,96668.16
2023-05-10T09:44:29.321Z,96666.47
2023-05-10T09:46:57.031Z,96666.16
2023-05-10T09:49:24.652Z,96660.00
2023-05-10T09:52:02.967Z,96662.03
2023-05-10T09:54:30.660Z,96670.00
2023-05-10T09:56:58.432Z,96666.38
2023-05-10T09:59:30.532Z,96670.38
2023-05-10T10:01:59.314Z,96666.16
2023-05-10T10:04:28.041Z,96662.94
2023-05-10T10:07:03.522Z,96668.16
2023-05-10T10:09:31.768Z,96667.03
2023-05-10T10:11:59.698Z,96669.19
2023-05-10T10:14:28.715Z,96684.28
2023-05-10T10:17:07.757Z,96690.00
2023-05-10T10:19:37.660Z,96682.06
2023-05-10T10:22:05.981Z,96673.59
2023-05-10T10:24:33.781Z,96678.84
2023-05-10T10:27:10.819Z,96676.16
2023-05-10T10:29:49.404Z,96673.50
2023-05-10T10:32:27.402Z,96670.31
2023-05-10T10:34:57.061Z,96672.50
2023-05-10T10:37:24.598Z,96682.50
2023-05-10T10:39:52.434Z,96666.00
2023-05-10T10:42:47.301Z,96674.81
2023-05-10T10:45:16.412Z,96672.34
2023-05-10T10:47:44.840Z,96677.47
2023-05-10T10:50:13.812Z,96671.69
2023-05-10T10:52:42.208Z,96674.09
2023-05-10T10:55:11.461Z,96671.19
2023-05-10T10:57:47.911Z,96681.09
2023-05-10T11:00:28.808Z,96666.78
2023-05-10T11:02:59.410Z,96670.91
2023-05-10T11:05:41.095Z,96662.72
2023-05-10T11:08:13.761Z,96659.56
2023-05-10T11:10:42.245Z,96669.13
2023-05-10T11:13:11.075Z,96662.50
2023-05-10T11:15:41.178Z,96668.28
2023-05-10T11:18:20.473Z,96673.97
2023-05-10T11:20:52.987Z,96657.28
2023-05-10T11:23:21.948Z,96660.50
2023-05-10T11:25:51.352Z,96662.72
2023-05-10T11:28:20.879Z,96657.97
2023-05-10T11:30:50.181Z,96661.47
2023-05-10T11:33:20.369Z,96663.28
2023-05-10T11:35:48.272Z,96666.94
2023-05-10T11:38:16.324Z,96659.69
2023-05-10T11:40:44.281Z,96655.81
2023-05-10T11:43:13.118Z,96661.47
2023-05-10T11:45:43.082Z,96657.78
2023-05-10T11:48:12.027Z,96656.03
2023-05-10T11:50:39.596Z,96647.69
2023-05-10T11:53:07.114Z,96655.09
2023-05-10T11:55:35.958Z,96648.06
2023-05-10T11:58:04.591Z,96656.56
2023-05-10T12:00:33.042Z,96647.97
2023-05-10T12:03:02.243Z,96655.00
2023-05-10T12:05:34.993Z,96648.13
2023-05-10T12:08:17.571Z,96647.22
2023-05-10T12:10:45.118Z,96650.81
2023-05-10T12:13:13.910Z,96649.34
2023-05-10T12:15:41.876Z,96657.13
2023-05-10T12:18:11.269Z,96644.72
2023-05-10T12:20:40.840Z,96655.75
2023-05-10T12:23:10.914Z,96662.94
2023-05-10T12:25:39.694Z,96658.41
2023-05-10T12:28:08.624Z,96668.56
2023-05-10T12:30:38.052Z,96652.38
2023-05-10T12:33:10.953Z,96649.75
2023-05-10T12:35:50.248Z,96655.09
2023-05-10T12:38:30.426Z,96652.09
2023-05-10T12:40:58.771Z,96643.00
2023-05-10T12:43:26.340Z,96643.72
2023-05-10T12:45:54.145Z,96646.22
2023-05-10T12:48:21.962Z,96651.97
2023-05-10T12:50:50.790Z,96641.31
2023-05-10T12:53:18.862Z,96643.72
2023-05-10T12:55:46.625Z,96637.63
2023-05-10T12:58:27.525Z,96634.94
2023-05-10T13:01:01.845Z,96630.16
2023-05-10T13:03:29.371Z,96631.22
2023-05-10T13:05:58.253Z,96625.44
2023-05-10T13:08:26.980Z,96620.78
2023-05-10T13:10:54.581Z,96622.63
2023-05-10T13:13:22.095Z,96633.84
2023-05-10T13:15:49.653Z,96622.41
2023-05-10T13:18:17.320Z,96627.38
2023-05-10T13:20:45.183Z,96623.94
2023-05-10T13:23:14.041Z,96624.69
2023-05-10T13:25:41.570Z,96618.59
2023-05-10T13:28:09.060Z,96626.13
2023-05-10T13:30:36.737Z,96626.25
2023-05-10T13:33:04.357Z,96625.66
2023-05-10T13:35:31.890Z,96624.34
2023-05-10T13:37:59.594Z,96637.47
2023-05-10T13:40:28.924Z,96631.09
2023-05-10T13:42:56.498Z,96633.78
2023-05-10T13:45:24.076Z,96627.47
2023-05-10T13:47:53.024Z,96639.00
2023-05-10T13:50:21.022Z,96639.81
2023-05-10T13:52:48.528Z,96631.19
2023-05-10T13:55:16.448Z,96635.84
2023-05-10T13:57:45.754Z,96626.22
2023-05-10T14:00:14.398Z,96628.00
2023-05-10T14:02:42.052Z,96634.16
2023-05-10T14:05:09.920Z,96629.34
2023-05-10T14:07:37.783Z,96626.94
2023-05-10T14:10:06.198Z,96618.66
2023-05-10T14:12:33.824Z,96624.88
2023-05-10T14:15:03.226Z,96624.59
2023-05-10T14:17:30.724Z,96619.31
2023-05-10T14:19:58.315Z,96620.75
2023-05-10T14:22:25.874Z,96615.72
2023-05-10T14:24:53.351Z,96615.03
2023-05-10T14:27:20.881Z,96613.91
2023-05-10T14:29:49.103Z,96614.75
2023-05-10T14:32:18.404Z,96610.72
2023-05-10T14:34:45.941Z,96615.16
2023-05-10T14:37:15.649Z,96612.47
2023-05-10T14:39:43.322Z,96617.00
2023-05-10T14:42:10.887Z,96617.16
2023-05-10T14:44:38.879Z,96616.78
2023-05-10T14:47:06.724Z,96618.94
2023-05-10T14:49:35.631Z,96619.84
2023-05-10T14:52:03.807Z,96625.28
2023-05-10T14:54:31.301Z,96620.47
2023-05-10T14:56:59.325Z,96618.41
2023-05-10T14:59:26.841Z,96614.78
2023-05-10T15:01:54.829Z,96617.09
2023-05-10T15:04:23.561Z,96610.94
2023-05-10T15:06:53.278Z,96612.22
2023-05-10T15:09:20.786Z,96611.28
2023-05-10T15:11:48.294Z,96613.69
2023-05-10T15:14:15.913Z,96611.50
2023-05-10T15:16:43.664Z,96606.13
2023-05-10T15:19:11.244Z,96614.47
2023-05-10T15:21:39.754Z,96602.91
2023-05-10T15:24:08.943Z,96613.19
2023-05-10T15:26:36.502Z,96619.84
2023-05-10T15:29:04.070Z,96617.66
2023-05-10T15:31:31.714Z,96622.19
2023-05-10T15:34:00.264Z,96621.03
2023-05-10T15:36:27.796Z,96618.75
2023-05-10T15:38:55.520Z,96626.25
2023-05-10T15:41:25.541Z,96624.34
2023-05-10T15:43:53.057Z,96628.91
2023-05-10T15:46:20.647Z,96628.97
2023-05-10T15:48:48.274Z,96620.63
2023-05-10T15:51:15.830Z,96629.03
2023-05-10T15:53:56.559Z,96625.84
2023-05-10T15:56:29.560Z,96638.16
2023-05-10T15:58:57.106Z,96627.94
2023-05-10T16:01:24.680Z,96640.03
2023-05-10T16:03:52.258Z,96635.16
2023-05-10T16:06:19.770Z,96646.53
2023-05-10T16:08:47.274Z,96648.44
2023-05-10T16:11:14.868Z,96643.34
2023-05-10T16:13:43.824Z,96640.16
2023-05-10T16:16:11.868Z,96636.22
2023-05-10T16:18:39.947Z,96639.25
2023-05-10T16:21:07.620Z,96631.09
2023-05-10T16:23:35.173Z,96630.88
2023-05-10T16:26:03.190Z,96635.47
2023-05-10T16:28:30.692Z,96636.19
2023-05-10T16:30:59.669Z,96635.25
2023-05-10T16:33:27.204Z,96634.44
2023-05-10T16:35:54.684Z,96637.41
2023-05-10T16:38:22.646Z,96634.63
2023-05-10T16:40:50.134Z,96638.53
2023-05-10T16:43:18.266Z,96637.91
2023-05-10T16:45:45.812Z,96632.38
2023-05-10T16:48:14.683Z,96635.22
2023-05-10T16:50:44.476Z,96636.28
2023-05-10T16:53:12.446Z,96634.63
2023-05-10T16:55:39.962Z,96642.34
2023-05-10T16:58:07.477Z,96642.91
2023-05-10T17:00:35.309Z,96648.97
2023-05-10T17:03:02.962Z,96645.69
2023-05-10T17:05:31.871Z,96657.56
2023-05-10T17:07:59.363Z,96650.88
2023-05-10T17:10:26.886Z,96658.69
2023-05-10T17:12:54.571Z,96663.66
2023-05-10T17:15:22.133Z,96663.03
2023-05-10T17:17:49.815Z,96666.63
2023-05-10T17:20:17.414Z,96668.41
2023-05-10T17:22:46.265Z,96670.06
2023-05-10T17:25:13.759Z,96674.88
2023-05-10T17:27:41.277Z,96675.06
2023-05-10T17:30:09.923Z,96672.84
2023-05-10T17:32:37.479Z,96683.97
2023-05-10T17:35:06.229Z,96676.19
2023-05-10T17:37:34.116Z,96680.75
2023-05-10T17:40:05.656Z,96682.41
2023-05-10T17:42:33.483Z,96683.06
2023-05-10T17:45:01.184Z,96687.41
2023-05-10T17:47:28.785Z,96682.09
2023-05-10T17:49:56.357Z,96685.44
2023-05-10T17:52:24.015Z,96679.31
2023-05-10T17:54:52.049Z,96676.59
2023-05-10T17:57:20.898Z,96680.25
2023-05-10T17:59:48.397Z,96693.03
2023-05-10T18:02:15.940Z,96693.53
2023-05-10T18:04:43.991Z,96693.41
2023-05-10T18:07:11.597Z,96691.50
2023-05-10T18:09:39.152Z,96696.38
2023-05-10T18:12:06.946Z,96703.09
2023-05-10T18:14:41.148Z,96700.75
2023-05-10T18:17:09.424Z,96705.94
2023-05-10T18:19:37.175Z,96712.50
2023-05-10T18:22:04.874Z,96721.16
2023-05-10T18:27:03.260Z,96708.56
2023-05-10T18:29:30.989Z,96709.72
2023-05-10T18:31:59.826Z,96712.56
2023-05-10T18:34:27.357Z,96712.53
2023-05-10T18:36:55.005Z,96711.25
2023-05-10T18:39:22.605Z,96717.34
2023-05-10T18:41:50.910Z,96713.94
2023-05-10T18:44:18.739Z,96715.25
2023-05-10T18:46:46.607Z,96716.38
2023-05-10T18:49:15.569Z,96717.34
2023-05-10T18:51:43.077Z,96720.56
2023-05-10T18:54:10.594Z,96726.91
2023-05-10T18:56:40.027Z,96719.25
2023-05-10T18:59:07.554Z,96718.91
2023-05-10T19:01:35.037Z,96720.00
2023-05-10T19:04:02.828Z,96726.69
2023-05-10T19:06:31.693Z,96726.09
2023-05-10T19:08:59.212Z,96727.47
2023-05-10T19:11:26.849Z,96728.25
2023-05-10T19:13:54.381Z,96725.88
2023-05-10T19:16:24.112Z,96735.34
2023-05-10T19:18:51.845Z,96733.50
2023-05-10T19:21:19.454Z,96741.25
2023-05-10T19:23:48.783Z,96745.66
2023-05-10T19:26:16.303Z,96739.41
2023-05-10T19:28:43.920Z,96749.81
2023-05-10T19:31:11.573Z,96748.59
2023-05-10T19:33:39.113Z,96756.41
2023-05-10T19:36:08.284Z,96753.59
2023-05-10T19:38:36.233Z,96760.47
2023-05-10T19:41:05.363Z,96761.75
2023-05-10T19:43:34.516Z,96761.28
2023-05-10T19:46:03.304Z,96763.44
2023-05-10T19:48:31.330Z,96764.38
2023-05-10T19:51:01.261Z,96767.88
2023-05-10T19:53:29.040Z,96767.78
2023-05-10T19:55:57.185Z,96767.47
2023-05-10T19:58:26.011Z,96767.38
2023-05-10T20:00:53.550Z,96761.91
2023-05-10T20:03:21.184Z,96768.19
2023-05-10T20:05:48.722Z,96764.31
2023-05-10T20:08:16.277Z,96769.50
2023-05-10T20:10:43.837Z,96770.78
2023-05-10T20:13:11.366Z,96776.19
2023-05-10T20:15:40.213Z,96769.03
2023-05-10T20:18:07.845Z,96774.81
2023-05-10T20:20:35.526Z,96775.47
2023-05-10T20:23:03.057Z,96777.19
2023-05-10T20:25:30.744Z,96779.00
2023-05-10T20:27:58.259Z,96771.84
2023-05-10T20:30:25.873Z,96770.00
2023-05-10T20:32:54.877Z,96775.06
2023-05-10T20:35:22.482Z,96776.59
2023-05-10T20:37:50.004Z,96768.34
2023-05-10T20:40:17.819Z,96775.06
2023-05-10T20:42:45.757Z,96774.81
2023-05-10T20:45:13.434Z,96774.03
2023-05-10T20:47:41.013Z,96773.41
2023-05-10T20:50:11.325Z,96770.13
2023-05-10T20:52:38.863Z,96764.03
2023-05-10T20:55:07.452Z,96769.09
2023-05-10T20:57:34.993Z,96774.88
2023-05-10T21:00:03.705Z,96767.38
2023-05-10T21:02:31.313Z,96770.81
2023-05-10T21:04:58.986Z,96771.44
2023-05-10T21:07:27.865Z,96769.91
2023-05-10T21:09:55.432Z,96773.34
2023-05-10T21:12:22.958Z,96766.78
2023-05-10T21:14:50.690Z,96761.94
2023-05-10T21:17:19.980Z,96764.59
2023-05-10T21:19:47.781Z,96757.56
2023-05-10T21:22:15.502Z,96761.19
2023-05-10T21:24:44.576Z,96760.72
2023-05-10T21:27:12.172Z,96755.41
2023-05-10T21:29:39.737Z,96752.59
2023-05-10T21:32:07.425Z,96752.13
2023-05-10T21:34:35.035Z,96750.59
2023-05-10T21:37:02.635Z,96756.22
2023-05-10T21:39:30.180Z,96758.84
2023-05-10T21:42:00.187Z,96757.13
2023-05-10T21:44:27.700Z,96754.00
2023-05-10T21:46:55.359Z,96760.44
2023-05-10T21:49:22.940Z,96752.44
2023-05-10T21:51:50.535Z,96753.56
2023-05-10T21:54:18.060Z,96754.81
2023-05-10T21:56:45.597Z,96757.63
2023-05-10T21:59:14.723Z,96761.53
2023-05-10T22:01:43.626Z,96752.78
2023-05-10T22:04:11.355Z,96756.84
2023-05-10T22:06:38.890Z,96757.78
2023-05-10T22:09:06.458Z,96756.38
2023-05-10T22:11:34.161Z,96758.25
2023-05-10T22:14:01.683Z,96751.50
2023-05-10T22:16:30.938Z,96754.50
2023-05-10T22:18:58.556Z,96760.13
2023-05-10T22:21:26.212Z,96754.63
2023-05-10T22:23:53.791Z,96758.41
2023-05-10T22:26:21.453Z,96754.19
2023-05-10T22:28:49.011Z,96755.44
2023-05-10T22:31:16.579Z,96753.25
2023-05-10T22:33:45.636Z,96757.59
2023-05-10T22:36:15.034Z,96751.06
2023-05-10T22:38:42.537Z,96753.56
2023-05-10T22:41:10.042Z,96760.28
2023-05-10T22:43:37.650Z,96752.47
2023-05-10T22:46:05.461Z,96749.03
2023-05-10T22:48:35.456Z,96750.91
2023-05-10T22:51:04.554Z,96746.22
2023-05-10T22:53:32.054Z,96755.31
2023-05-10T22:55:59.726Z,96747.78
2023-05-10T22:58:27.618Z,96744.97
2023-05-10T23:00:55.992Z,96758.72
2023-05-10T23:03:23.558Z,96753.25
2023-05-10T23:05:51.151Z,96751.38
2023-05-10T23:08:20.025Z,96754.66
2023-05-10T23:10:47.538Z,96759.66
2023-05-10T23:13:15.065Z,96763.56
2023-05-10T23:15:43.469Z,96758.09
2023-05-10T23:18:11.133Z,96760.28
2023-05-10T23:20:38.734Z,96759.38
2023-05-10T23:23:06.819Z,96758.44
2023-05-10T23:25:36.279Z,96761.56
2023-05-10T23:28:03.872Z,96761.56
2023-05-10T23:30:31.931Z,96760.63
2023-05-10T23:32:59.633Z,96755.13
2023-05-10T23:35:27.335Z,96767.47
2023-05-10T23:37:54.991Z,96766.38
2023-05-10T23:40:22.572Z,96760.59
2023-05-10T23:42:51.560Z,96761.38
2023-05-10T23:45:19.122Z,96754.97
2023-05-10T23:47:46.719Z,96757.47
2023-05-10T23:50:14.254Z,96750.59
2023-05-10T23:52:41.815Z,96752.94
2023-05-10T23:55:10.609Z,96746.53
2023-05-10T23:57:38.597Z,96743.72
